sensor_id;sensor_type;location;lat;lon;timestamp;temperature;humidity
40077;DHT22;25777;47.824;18.982;2024-01-16T00:00:51;0.80;99.90
40077;DHT22;25777;47.824;18.982;2024-01-16T00:03:16;0.80;99.90
40077;DHT22;25777;47.824;18.982;2024-01-16T00:05:42;0.70;99.90
40077;DHT22;25777;47.824;18.982;2024-01-16T00:08:08;0.70;99.90
40077;DHT22;25777;47.824;18.982;2024-01-16T00:10:34;0.60;99.90
40077;DHT22;25777;47.824;18.982;2024-01-16T00:13:00;0.70;99.90
40077;DHT22;25777;47.824;18.982;2024-01-16T00:15:25;0.70;99.90
40077;DHT22;25777;47.824;18.982;2024-01-16T00:17:51;0.60;99.90
40077;DHT22;25777;47.824;18.982;2024-01-16T00:20:17;0.60;99.90
40077;DHT22;25777;47.824;18.982;2024-01-16T00:22:43;0.60;99.90
40077;DHT22;25777;47.824;18.982;2024-01-16T00:25:09;0.60;99.90
40077;DHT22;25777;47.824;18.982;2024-01-16T00:27:35;0.70;99.90
40077;DHT22;25777;47.824;18.982;2024-01-16T00:30:01;0.70;99.90
40077;DHT22;25777;47.824;18.982;2024-01-16T00:32:27;0.70;99.90
40077;DHT22;25777;47.824;18.982;2024-01-16T00:34:52;0.60;99.90
40077;DHT22;25777;47.824;18.982;2024-01-16T00:37:18;0.60;99.90
40077;DHT22;25777;47.824;18.982;2024-01-16T00:39:44;0.70;99.90
40077;DHT22;25777;47.824;18.982;2024-01-16T00:42:10;0.80;99.90
40077;DHT22;25777;47.824;18.982;2024-01-16T00:44:35;0.80;99.90
40077;DHT22;25777;47.824;18.982;2024-01-16T00:47:01;0.80;99.90
40077;DHT22;25777;47.824;18.982;2024-01-16T00:49:27;0.80;99.90
40077;DHT22;25777;47.824;18.982;2024-01-16T00:51:54;1.10;99.90
40077;DHT22;25777;47.824;18.982;2024-01-16T00:54:20;0.80;99.90
40077;DHT22;25777;47.824;18.982;2024-01-16T00:56:46;0.80;99.90
40077;DHT22;25777;47.824;18.982;2024-01-16T00:59:12;0.80;99.90
40077;DHT22;25777;47.824;18.982;2024-01-16T01:01:38;0.90;99.90
40077;DHT22;25777;47.824;18.982;2024-01-16T01:04:04;0.90;99.90
40077;DHT22;25777;47.824;18.982;2024-01-16T01:06:29;0.90;99.90
40077;DHT22;25777;47.824;18.982;2024-01-16T01:08:55;0.80;99.90
40077;DHT22;25777;47.824;18.982;2024-01-16T01:11:21;0.80;99.90
40077;DHT22;25777;47.824;18.982;2024-01-16T01:13:47;0.80;99.90
40077;DHT22;25777;47.824;18.982;2024-01-16T01:16:13;0.80;99.90
40077;DHT22;25777;47.824;18.982;2024-01-16T01:18:38;0.90;99.90
40077;DHT22;25777;47.824;18.982;2024-01-16T01:21:04;0.90;99.90
40077;DHT22;25777;47.824;18.982;2024-01-16T01:23:30;0.80;99.90
40077;DHT22;25777;47.824;18.982;2024-01-16T01:25:56;0.80;99.90
40077;DHT22;25777;47.824;18.982;2024-01-16T01:28:22;0.60;99.90
40077;DHT22;25777;47.824;18.982;2024-01-16T01:30:48;0.70;99.90
40077;DHT22;25777;47.824;18.982;2024-01-16T01:33:14;0.70;99.90
40077;DHT22;25777;47.824;18.982;2024-01-16T01:35:39;0.80;99.90
40077;DHT22;25777;47.824;18.982;2024-01-16T01:38:05;0.80;99.90
40077;DHT22;25777;47.824;18.982;2024-01-16T01:40:33;0.90;99.90
40077;DHT22;25777;47.824;18.982;2024-01-16T01:43:17;0.90;99.90
40077;DHT22;25777;47.824;18.982;2024-01-16T01:45:43;0.80;99.90
40077;DHT22;25777;47.824;18.982;2024-01-16T01:48:09;0.80;99.90
40077;DHT22;25777;47.824;18.982;2024-01-16T01:50:35;0.80;99.90
40077;DHT22;25777;47.824;18.982;2024-01-16T01:53:01;0.80;99.90
40077;DHT22;25777;47.824;18.982;2024-01-16T01:55:27;0.90;99.90
40077;DHT22;25777;47.824;18.982;2024-01-16T01:57:53;0.80;99.90
40077;DHT22;25777;47.824;18.982;2024-01-16T02:00:19;0.80;99.90
40077;DHT22;25777;47.824;18.982;2024-01-16T02:02:46;0.80;99.90
40077;DHT22;25777;47.824;18.982;2024-01-16T02:05:12;0.90;99.90
40077;DHT22;25777;47.824;18.982;2024-01-16T02:07:38;0.90;99.90
40077;DHT22;25777;47.824;18.982;2024-01-16T02:10:04;1.00;99.90
40077;DHT22;25777;47.824;18.982;2024-01-16T02:12:30;1.00;99.90
40077;DHT22;25777;47.824;18.982;2024-01-16T02:14:56;1.00;99.90
40077;DHT22;25777;47.824;18.982;2024-01-16T02:17:22;1.00;99.90
40077;DHT22;25777;47.824;18.982;2024-01-16T02:19:47;1.00;99.90
40077;DHT22;25777;47.824;18.982;2024-01-16T02:22:18;1.00;99.90
40077;DHT22;25777;47.824;18.982;2024-01-16T02:24:46;1.00;99.90
40077;DHT22;25777;47.824;18.982;2024-01-16T02:27:12;1.00;99.90
40077;DHT22;25777;47.824;18.982;2024-01-16T02:29:42;0.90;99.90
40077;DHT22;25777;47.824;18.982;2024-01-16T02:32:15;1.00;99.90
40077;DHT22;25777;47.824;18.982;2024-01-16T02:34:41;1.00;99.90
40077;DHT22;25777;47.824;18.982;2024-01-16T02:37:07;1.00;99.90
40077;DHT22;25777;47.824;18.982;2024-01-16T02:39:33;1.00;99.90
40077;DHT22;25777;47.824;18.982;2024-01-16T02:41:58;1.00;99.90
40077;DHT22;25777;47.824;18.982;2024-01-16T02:44:24;1.00;99.90
40077;DHT22;25777;47.824;18.982;2024-01-16T02:46:50;1.00;99.90
40077;DHT22;25777;47.824;18.982;2024-01-16T02:49:16;1.00;99.90
40077;DHT22;25777;47.824;18.982;2024-01-16T02:51:42;1.00;99.90
40077;DHT22;25777;47.824;18.982;2024-01-16T02:54:08;1.10;99.90
40077;DHT22;25777;47.824;18.982;2024-01-16T02:56:34;1.00;99.90
40077;DHT22;25777;47.824;18.982;2024-01-16T02:58:59;1.00;99.90
40077;DHT22;25777;47.824;18.982;2024-01-16T03:01:25;1.00;99.90
40077;DHT22;25777;47.824;18.982;2024-01-16T03:03:51;1.00;99.90
40077;DHT22;25777;47.824;18.982;2024-01-16T03:06:26;1.10;99.90
40077;DHT22;25777;47.824;18.982;2024-01-16T03:08:52;1.00;99.90
40077;DHT22;25777;47.824;18.982;2024-01-16T03:11:18;1.00;99.90
40077;DHT22;25777;47.824;18.982;2024-01-16T03:13:43;1.00;99.90
40077;DHT22;25777;47.824;18.982;2024-01-16T03:16:12;1.00;99.90
40077;DHT22;25777;47.824;18.982;2024-01-16T03:18:38;1.10;99.90
40077;DHT22;25777;47.824;18.982;2024-01-16T03:21:05;1.10;99.90
40077;DHT22;25777;47.824;18.982;2024-01-16T03:23:31;1.10;99.90
40077;DHT22;25777;47.824;18.982;2024-01-16T03:25:57;1.10;99.90
40077;DHT22;25777;47.824;18.982;2024-01-16T03:28:23;1.00;99.90
40077;DHT22;25777;47.824;18.982;2024-01-16T03:30:49;1.00;99.90
40077;DHT22;25777;47.824;18.982;2024-01-16T03:33:15;1.10;99.90
40077;DHT22;25777;47.824;18.982;2024-01-16T03:35:40;1.00;99.90
40077;DHT22;25777;47.824;18.982;2024-01-16T03:38:06;1.00;99.90
40077;DHT22;25777;47.824;18.982;2024-01-16T03:40:32;1.00;99.90
40077;DHT22;25777;47.824;18.982;2024-01-16T03:43:03;1.10;99.90
40077;DHT22;25777;47.824;18.982;2024-01-16T03:45:31;1.10;99.90
40077;DHT22;25777;47.824;18.982;2024-01-16T03:47:57;1.00;99.90
40077;DHT22;25777;47.824;18.982;2024-01-16T03:50:23;1.00;99.90
40077;DHT22;25777;47.824;18.982;2024-01-16T03:52:48;1.00;99.90
40077;DHT22;25777;47.824;18.982;2024-01-16T03:55:14;1.00;99.90
40077;DHT22;25777;47.824;18.982;2024-01-16T03:57:40;1.10;99.90
40077;DHT22;25777;47.824;18.982;2024-01-16T04:00:06;1.10;99.90
40077;DHT22;25777;47.824;18.982;2024-01-16T04:02:32;1.10;99.90
40077;DHT22;25777;47.824;18.982;2024-01-16T04:04:58;1.10;99.90
40077;DHT22;25777;47.824;18.982;2024-01-16T04:07:24;1.20;99.90
40077;DHT22;25777;47.824;18.982;2024-01-16T04:09:52;1.10;99.90
40077;DHT22;25777;47.824;18.982;2024-01-16T04:12:18;1.10;99.90
40077;DHT22;25777;47.824;18.982;2024-01-16T04:14:43;1.10;99.90
40077;DHT22;25777;47.824;18.982;2024-01-16T04:17:09;1.10;99.90
40077;DHT22;25777;47.824;18.982;2024-01-16T04:19:35;1.10;99.90
40077;DHT22;25777;47.824;18.982;2024-01-16T04:22:01;1.10;99.90
40077;DHT22;25777;47.824;18.982;2024-01-16T04:24:27;1.10;99.90
40077;DHT22;25777;47.824;18.982;2024-01-16T04:26:53;1.20;99.90
40077;DHT22;25777;47.824;18.982;2024-01-16T04:29:19;1.20;99.90
40077;DHT22;25777;47.824;18.982;2024-01-16T04:31:45;1.20;99.90
40077;DHT22;25777;47.824;18.982;2024-01-16T04:34:11;1.20;99.90
40077;DHT22;25777;47.824;18.982;2024-01-16T04:36:37;1.10;99.90
40077;DHT22;25777;47.824;18.982;2024-01-16T04:39:03;1.10;99.90
40077;DHT22;25777;47.824;18.982;2024-01-16T04:41:31;1.10;99.90
40077;DHT22;25777;47.824;18.982;2024-01-16T04:43:57;1.10;99.90
40077;DHT22;25777;47.824;18.982;2024-01-16T04:46:23;1.10;99.90
40077;DHT22;25777;47.824;18.982;2024-01-16T04:48:48;1.10;99.90
40077;DHT22;25777;47.824;18.982;2024-01-16T04:51:15;1.10;99.90
40077;DHT22;25777;47.824;18.982;2024-01-16T04:53:41;1.10;99.90
40077;DHT22;25777;47.824;18.982;2024-01-16T04:56:07;1.20;99.90
40077;DHT22;25777;47.824;18.982;2024-01-16T04:58:33;1.20;99.90
40077;DHT22;25777;47.824;18.982;2024-01-16T05:00:58;1.10;99.90
40077;DHT22;25777;47.824;18.982;2024-01-16T05:03:24;1.10;99.90
40077;DHT22;25777;47.824;18.982;2024-01-16T05:05:50;1.00;99.90
40077;DHT22;25777;47.824;18.982;2024-01-16T05:08:16;1.10;99.90
40077;DHT22;25777;47.824;18.982;2024-01-16T05:10:42;1.20;99.90
40077;DHT22;25777;47.824;18.982;2024-01-16T05:13:07;1.10;99.90
40077;DHT22;25777;47.824;18.982;2024-01-16T05:15:33;1.10;99.90
40077;DHT22;25777;47.824;18.982;2024-01-16T05:17:59;1.10;99.90
40077;DHT22;25777;47.824;18.982;2024-01-16T05:20:25;1.10;99.90
40077;DHT22;25777;47.824;18.982;2024-01-16T05:22:51;1.10;99.90
40077;DHT22;25777;47.824;18.982;2024-01-16T05:25:16;1.10;99.90
40077;DHT22;25777;47.824;18.982;2024-01-16T05:27:43;1.00;99.90
40077;DHT22;25777;47.824;18.982;2024-01-16T05:30:09;1.00;99.90
40077;DHT22;25777;47.824;18.982;2024-01-16T05:32:36;0.90;99.90
40077;DHT22;25777;47.824;18.982;2024-01-16T05:35:02;0.80;99.90
40077;DHT22;25777;47.824;18.982;2024-01-16T05:37:28;0.90;99.90
40077;DHT22;25777;47.824;18.982;2024-01-16T05:39:55;0.90;99.90
40077;DHT22;25777;47.824;18.982;2024-01-16T05:42:20;0.90;99.90
40077;DHT22;25777;47.824;18.982;2024-01-16T05:44:47;0.90;99.90
40077;DHT22;25777;47.824;18.982;2024-01-16T05:47:12;0.80;99.90
40077;DHT22;25777;47.824;18.982;2024-01-16T05:49:38;0.80;99.90
40077;DHT22;25777;47.824;18.982;2024-01-16T05:52:04;0.80;99.90
40077;DHT22;25777;47.824;18.982;2024-01-16T05:54:30;0.80;99.90
40077;DHT22;25777;47.824;18.982;2024-01-16T05:56:56;0.80;99.90
40077;DHT22;25777;47.824;18.982;2024-01-16T05:59:22;0.80;99.90
40077;DHT22;25777;47.824;18.982;2024-01-16T06:01:48;0.80;99.90
40077;DHT22;25777;47.824;18.982;2024-01-16T06:04:14;0.80;99.90
40077;DHT22;25777;47.824;18.982;2024-01-16T06:06:40;0.70;99.90
40077;DHT22;25777;47.824;18.982;2024-01-16T06:09:10;0.80;99.90
40077;DHT22;25777;47.824;18.982;2024-01-16T06:11:39;0.70;99.90
40077;DHT22;25777;47.824;18.982;2024-01-16T06:14:07;0.70;99.90
40077;DHT22;25777;47.824;18.982;2024-01-16T06:16:33;0.70;99.90
40077;DHT22;25777;47.824;18.982;2024-01-16T06:18:58;0.70;99.90
40077;DHT22;25777;47.824;18.982;2024-01-16T06:21:24;0.60;99.90
40077;DHT22;25777;47.824;18.982;2024-01-16T06:23:50;0.70;99.90
40077;DHT22;25777;47.824;18.982;2024-01-16T06:26:16;0.60;99.90
40077;DHT22;25777;47.824;18.982;2024-01-16T06:28:42;0.60;99.90
40077;DHT22;25777;47.824;18.982;2024-01-16T06:31:09;0.70;99.90
40077;DHT22;25777;47.824;18.982;2024-01-16T06:33:35;0.60;99.90
40077;DHT22;25777;47.824;18.982;2024-01-16T06:36:02;0.60;99.90
40077;DHT22;25777;47.824;18.982;2024-01-16T06:38:30;0.60;99.90
40077;DHT22;25777;47.824;18.982;2024-01-16T06:40:56;0.70;99.90
40077;DHT22;25777;47.824;18.982;2024-01-16T06:43:23;0.60;99.90
40077;DHT22;25777;47.824;18.982;2024-01-16T06:45:49;0.60;99.90
40077;DHT22;25777;47.824;18.982;2024-01-16T06:48:14;0.70;99.90
40077;DHT22;25777;47.824;18.982;2024-01-16T06:50:41;0.60;99.90
40077;DHT22;25777;47.824;18.982;2024-01-16T06:53:07;0.70;99.90
40077;DHT22;25777;47.824;18.982;2024-01-16T06:55:33;0.60;99.90
40077;DHT22;25777;47.824;18.982;2024-01-16T06:57:59;0.70;99.90
40077;DHT22;25777;47.824;18.982;2024-01-16T07:00:25;0.70;99.90
40077;DHT22;25777;47.824;18.982;2024-01-16T07:02:52;0.70;99.90
40077;DHT22;25777;47.824;18.982;2024-01-16T07:05:20;0.70;99.90
40077;DHT22;25777;47.824;18.982;2024-01-16T07:07:47;0.80;99.90
40077;DHT22;25777;47.824;18.982;2024-01-16T07:10:13;0.80;99.90
40077;DHT22;25777;47.824;18.982;2024-01-16T07:12:44;0.90;99.90
40077;DHT22;25777;47.824;18.982;2024-01-16T07:15:10;1.00;99.90
40077;DHT22;25777;47.824;18.982;2024-01-16T07:17:36;1.00;99.40
40077;DHT22;25777;47.824;18.982;2024-01-16T07:20:02;1.10;99.90
40077;DHT22;25777;47.824;18.982;2024-01-16T07:22:28;1.10;98.80
40077;DHT22;25777;47.824;18.982;2024-01-16T07:24:54;1.10;99.10
40077;DHT22;25777;47.824;18.982;2024-01-16T07:27:20;1.10;97.20
40077;DHT22;25777;47.824;18.982;2024-01-16T07:29:46;1.10;98.30
40077;DHT22;25777;47.824;18.982;2024-01-16T07:32:12;1.10;98.30
40077;DHT22;25777;47.824;18.982;2024-01-16T07:34:38;1.10;98.70
40077;DHT22;25777;47.824;18.982;2024-01-16T07:37:04;1.20;98.50
40077;DHT22;25777;47.824;18.982;2024-01-16T07:39:30;1.20;99.10
40077;DHT22;25777;47.824;18.982;2024-01-16T07:41:55;1.10;99.20
40077;DHT22;25777;47.824;18.982;2024-01-16T07:44:21;1.20;98.80
40077;DHT22;25777;47.824;18.982;2024-01-16T07:46:47;1.20;98.80
40077;DHT22;25777;47.824;18.982;2024-01-16T07:49:13;1.30;98.80
40077;DHT22;25777;47.824;18.982;2024-01-16T07:51:39;1.30;98.30
40077;DHT22;25777;47.824;18.982;2024-01-16T07:54:06;1.20;99.30
40077;DHT22;25777;47.824;18.982;2024-01-16T07:56:33;1.30;99.10
40077;DHT22;25777;47.824;18.982;2024-01-16T07:58:59;1.30;99.50
40077;DHT22;25777;47.824;18.982;2024-01-16T08:01:25;1.30;98.90
40077;DHT22;25777;47.824;18.982;2024-01-16T08:03:51;1.30;99.50
40077;DHT22;25777;47.824;18.982;2024-01-16T08:06:17;1.30;98.60
40077;DHT22;25777;47.824;18.982;2024-01-16T08:08:43;1.30;99.10
40077;DHT22;25777;47.824;18.982;2024-01-16T08:11:08;1.20;98.40
40077;DHT22;25777;47.824;18.982;2024-01-16T08:13:34;1.20;98.70
40077;DHT22;25777;47.824;18.982;2024-01-16T08:16:00;1.20;99.20
40077;DHT22;25777;47.824;18.982;2024-01-16T08:18:26;1.30;99.60
40077;DHT22;25777;47.824;18.982;2024-01-16T08:20:52;1.20;98.00
40077;DHT22;25777;47.824;18.982;2024-01-16T08:23:18;1.20;99.30
40077;DHT22;25777;47.824;18.982;2024-01-16T08:25:44;1.30;98.80
40077;DHT22;25777;47.824;18.982;2024-01-16T08:28:10;1.40;99.30
40077;DHT22;25777;47.824;18.982;2024-01-16T08:30:36;1.30;99.50
40077;DHT22;25777;47.824;18.982;2024-01-16T08:33:02;1.30;99.30
40077;DHT22;25777;47.824;18.982;2024-01-16T08:35:28;1.30;98.20
40077;DHT22;25777;47.824;18.982;2024-01-16T08:37:53;1.40;94.70
40077;DHT22;25777;47.824;18.982;2024-01-16T08:40:19;1.50;96.60
40077;DHT22;25777;47.824;18.982;2024-01-16T08:42:45;1.50;97.70
40077;DHT22;25777;47.824;18.982;2024-01-16T08:45:11;1.50;97.40
40077;DHT22;25777;47.824;18.982;2024-01-16T08:47:37;1.50;98.00
40077;DHT22;25777;47.824;18.982;2024-01-16T08:50:03;1.50;98.00
40077;DHT22;25777;47.824;18.982;2024-01-16T08:52:29;1.50;94.20
40077;DHT22;25777;47.824;18.982;2024-01-16T08:54:56;1.60;95.30
40077;DHT22;25777;47.824;18.982;2024-01-16T08:57:22;1.60;95.40
40077;DHT22;25777;47.824;18.982;2024-01-16T08:59:47;1.70;94.40
40077;DHT22;25777;47.824;18.982;2024-01-16T09:02:13;1.60;95.40
40077;DHT22;25777;47.824;18.982;2024-01-16T09:04:39;1.70;94.50
40077;DHT22;25777;47.824;18.982;2024-01-16T09:07:05;1.70;95.30
40077;DHT22;25777;47.824;18.982;2024-01-16T09:09:31;1.70;94.30
40077;DHT22;25777;47.824;18.982;2024-01-16T09:11:56;1.70;94.60
40077;DHT22;25777;47.824;18.982;2024-01-16T09:14:23;1.70;95.30
40077;DHT22;25777;47.824;18.982;2024-01-16T09:16:49;1.70;96.00
40077;DHT22;25777;47.824;18.982;2024-01-16T09:19:15;1.70;93.80
40077;DHT22;25777;47.824;18.982;2024-01-16T09:21:40;1.70;95.60
40077;DHT22;25777;47.824;18.982;2024-01-16T09:24:06;1.80;92.90
40077;DHT22;25777;47.824;18.982;2024-01-16T09:26:32;1.80;94.60
40077;DHT22;25777;47.824;18.982;2024-01-16T09:28:58;1.80;91.60
40077;DHT22;25777;47.824;18.982;2024-01-16T09:31:24;1.90;93.30
40077;DHT22;25777;47.824;18.982;2024-01-16T09:33:50;1.90;92.30
40077;DHT22;25777;47.824;18.982;2024-01-16T09:36:16;1.90;91.20
40077;DHT22;25777;47.824;18.982;2024-01-16T09:38:42;1.90;93.30
40077;DHT22;25777;47.824;18.982;2024-01-16T09:41:07;1.90;93.40
40077;DHT22;25777;47.824;18.982;2024-01-16T09:43:33;1.90;92.10
40077;DHT22;25777;47.824;18.982;2024-01-16T09:46:04;1.90;92.80
40077;DHT22;25777;47.824;18.982;2024-01-16T09:48:31;1.90;93.70
40077;DHT22;25777;47.824;18.982;2024-01-16T09:50:57;2.00;92.00
40077;DHT22;25777;47.824;18.982;2024-01-16T09:53:24;2.00;89.60
40077;DHT22;25777;47.824;18.982;2024-01-16T09:55:50;2.10;90.00
40077;DHT22;25777;47.824;18.982;2024-01-16T09:58:20;2.00;90.50
40077;DHT22;25777;47.824;18.982;2024-01-16T10:00:47;2.10;92.20
40077;DHT22;25777;47.824;18.982;2024-01-16T10:03:14;2.20;91.50
40077;DHT22;25777;47.824;18.982;2024-01-16T10:05:41;2.30;90.30
40077;DHT22;25777;47.824;18.982;2024-01-16T10:08:08;2.40;90.90
40077;DHT22;25777;47.824;18.982;2024-01-16T10:10:34;2.50;90.50
40077;DHT22;25777;47.824;18.982;2024-01-16T10:13:03;2.50;91.00
40077;DHT22;25777;47.824;18.982;2024-01-16T10:15:29;2.50;87.10
40077;DHT22;25777;47.824;18.982;2024-01-16T10:17:55;2.60;90.30
40077;DHT22;25777;47.824;18.982;2024-01-16T10:20:32;2.60;91.30
40077;DHT22;25777;47.824;18.982;2024-01-16T10:22:59;2.70;90.70
40077;DHT22;25777;47.824;18.982;2024-01-16T10:25:25;2.80;91.20
40077;DHT22;25777;47.824;18.982;2024-01-16T10:28:03;2.80;90.40
40077;DHT22;25777;47.824;18.982;2024-01-16T10:30:30;2.90;90.50
40077;DHT22;25777;47.824;18.982;2024-01-16T10:33:00;2.90;86.90
40077;DHT22;25777;47.824;18.982;2024-01-16T10:35:37;2.90;85.60
40077;DHT22;25777;47.824;18.982;2024-01-16T10:38:03;3.00;89.30
40077;DHT22;25777;47.824;18.982;2024-01-16T10:40:29;3.00;85.80
40077;DHT22;25777;47.824;18.982;2024-01-16T10:43:01;3.00;85.90
40077;DHT22;25777;47.824;18.982;2024-01-16T10:45:27;2.90;88.60
40077;DHT22;25777;47.824;18.982;2024-01-16T10:48:08;3.00;84.50
40077;DHT22;25777;47.824;18.982;2024-01-16T10:50:36;3.00;83.70
40077;DHT22;25777;47.824;18.982;2024-01-16T10:53:06;3.00;83.90
40077;DHT22;25777;47.824;18.982;2024-01-16T10:55:50;3.00;82.10
40077;DHT22;25777;47.824;18.982;2024-01-16T10:58:23;3.10;81.70
40077;DHT22;25777;47.824;18.982;2024-01-16T11:00:52;3.20;86.30
40077;DHT22;25777;47.824;18.982;2024-01-16T11:03:25;3.20;87.10
40077;DHT22;25777;47.824;18.982;2024-01-16T11:05:57;3.30;87.40
40077;DHT22;25777;47.824;18.982;2024-01-16T11:08:24;3.20;82.70
40077;DHT22;25777;47.824;18.982;2024-01-16T11:10:57;3.10;84.10
40077;DHT22;25777;47.824;18.982;2024-01-16T11:13:23;3.10;84.50
40077;DHT22;25777;47.824;18.982;2024-01-16T11:15:50;3.00;85.00
40077;DHT22;25777;47.824;18.982;2024-01-16T11:18:16;3.00;85.60
40077;DHT22;25777;47.824;18.982;2024-01-16T11:20:43;3.00;88.10
40077;DHT22;25777;47.824;18.982;2024-01-16T11:23:11;3.00;88.00
40077;DHT22;25777;47.824;18.982;2024-01-16T11:25:38;3.00;85.40
40077;DHT22;25777;47.824;18.982;2024-01-16T11:28:14;3.00;85.20
40077;DHT22;25777;47.824;18.982;2024-01-16T11:30:42;3.00;86.60
40077;DHT22;25777;47.824;18.982;2024-01-16T11:36:00;3.00;86.30
40077;DHT22;25777;47.824;18.982;2024-01-16T11:38:26;3.10;83.40
40077;DHT22;25777;47.824;18.982;2024-01-16T11:40:53;3.10;85.20
40077;DHT22;25777;47.824;18.982;2024-01-16T11:43:36;3.20;83.60
40077;DHT22;25777;47.824;18.982;2024-01-16T11:46:06;3.20;82.60
40077;DHT22;25777;47.824;18.982;2024-01-16T11:48:33;3.20;81.30
40077;DHT22;25777;47.824;18.982;2024-01-16T11:50:59;3.20;80.90
40077;DHT22;25777;47.824;18.982;2024-01-16T11:53:38;3.20;78.00
40077;DHT22;25777;47.824;18.982;2024-01-16T12:02:21;3.20;77.10
40077;DHT22;25777;47.824;18.982;2024-01-16T12:04:53;3.20;79.00
40077;DHT22;25777;47.824;18.982;2024-01-16T12:07:24;3.30;77.50
40077;DHT22;25777;47.824;18.982;2024-01-16T12:09:50;3.30;78.40
40077;DHT22;25777;47.824;18.982;2024-01-16T12:12:16;3.30;79.50
40077;DHT22;25777;47.824;18.982;2024-01-16T12:14:51;3.30;75.90
40077;DHT22;25777;47.824;18.982;2024-01-16T12:17:20;3.40;76.90
40077;DHT22;25777;47.824;18.982;2024-01-16T12:19:46;3.30;77.60
40077;DHT22;25777;47.824;18.982;2024-01-16T12:22:16;3.30;79.60
40077;DHT22;25777;47.824;18.982;2024-01-16T12:24:47;3.30;81.50
40077;DHT22;25777;47.824;18.982;2024-01-16T12:27:13;3.20;79.30
40077;DHT22;25777;47.824;18.982;2024-01-16T12:29:40;3.20;81.90
40077;DHT22;25777;47.824;18.982;2024-01-16T12:32:12;3.30;78.10
40077;DHT22;25777;47.824;18.982;2024-01-16T12:34:49;3.40;76.20
40077;DHT22;25777;47.824;18.982;2024-01-16T12:37:15;3.50;72.80
40077;DHT22;25777;47.824;18.982;2024-01-16T12:39:41;3.50;73.80
40077;DHT22;25777;47.824;18.982;2024-01-16T12:42:09;3.40;76.00
40077;DHT22;25777;47.824;18.982;2024-01-16T12:44:38;3.40;78.90
40077;DHT22;25777;47.824;18.982;2024-01-16T12:47:04;3.40;80.10
40077;DHT22;25777;47.824;18.982;2024-01-16T12:49:30;3.30;81.20
40077;DHT22;25777;47.824;18.982;2024-01-16T12:52:18;3.30;79.20
40077;DHT22;25777;47.824;18.982;2024-01-16T12:54:44;3.30;80.00
40077;DHT22;25777;47.824;18.982;2024-01-16T12:57:10;3.30;78.30
40077;DHT22;25777;47.824;18.982;2024-01-16T12:59:41;3.50;73.60
40077;DHT22;25777;47.824;18.982;2024-01-16T13:02:07;3.40;75.00
40077;DHT22;25777;47.824;18.982;2024-01-16T13:04:33;3.40;74.60
40077;DHT22;25777;47.824;18.982;2024-01-16T13:07:02;3.30;76.80
40077;DHT22;25777;47.824;18.982;2024-01-16T13:09:28;3.20;78.20
40077;DHT22;25777;47.824;18.982;2024-01-16T13:11:55;3.20;74.10
40077;DHT22;25777;47.824;18.982;2024-01-16T13:14:22;3.10;78.10
40077;DHT22;25777;47.824;18.982;2024-01-16T13:16:49;3.10;74.40
40077;DHT22;25777;47.824;18.982;2024-01-16T13:19:19;3.10;77.70
40077;DHT22;25777;47.824;18.982;2024-01-16T13:21:45;3.20;77.00
40077;DHT22;25777;47.824;18.982;2024-01-16T13:24:11;3.20;78.40
40077;DHT22;25777;47.824;18.982;2024-01-16T13:26:39;3.20;76.90
40077;DHT22;25777;47.824;18.982;2024-01-16T13:29:05;3.10;77.30
40077;DHT22;25777;47.824;18.982;2024-01-16T13:31:32;3.20;80.10
40077;DHT22;25777;47.824;18.982;2024-01-16T13:33:58;3.10;77.10
40077;DHT22;25777;47.824;18.982;2024-01-16T13:36:24;3.20;79.60
40077;DHT22;25777;47.824;18.982;2024-01-16T13:38:50;3.20;74.60
40077;DHT22;25777;47.824;18.982;2024-01-16T13:41:16;3.20;78.80
40077;DHT22;25777;47.824;18.982;2024-01-16T13:43:42;3.30;75.10
40077;DHT22;25777;47.824;18.982;2024-01-16T13:46:07;3.30;75.60
40077;DHT22;25777;47.824;18.982;2024-01-16T13:48:36;3.30;75.90
40077;DHT22;25777;47.824;18.982;2024-01-16T13:51:02;3.30;77.90
40077;DHT22;25777;47.824;18.982;2024-01-16T13:53:30;3.30;78.50
40077;DHT22;25777;47.824;18.982;2024-01-16T13:55:56;3.20;80.00
40077;DHT22;25777;47.824;18.982;2024-01-16T13:58:23;3.20;79.20
40077;DHT22;25777;47.824;18.982;2024-01-16T14:00:49;3.20;82.00
40077;DHT22;25777;47.824;18.982;2024-01-16T14:03:15;3.10;81.80
40077;DHT22;25777;47.824;18.982;2024-01-16T14:05:42;3.10;82.50
40077;DHT22;25777;47.824;18.982;2024-01-16T14:08:09;3.10;83.80
40077;DHT22;25777;47.824;18.982;2024-01-16T14:10:38;3.10;83.70
40077;DHT22;25777;47.824;18.982;2024-01-16T14:13:04;3.10;85.00
40077;DHT22;25777;47.824;18.982;2024-01-16T14:15:30;3.00;84.80
40077;DHT22;25777;47.824;18.982;2024-01-16T14:17:56;3.00;85.50
40077;DHT22;25777;47.824;18.982;2024-01-16T14:20:25;3.00;86.80
40077;DHT22;25777;47.824;18.982;2024-01-16T14:22:52;2.90;87.20
40077;DHT22;25777;47.824;18.982;2024-01-16T14:25:19;3.00;88.10
40077;DHT22;25777;47.824;18.982;2024-01-16T14:30:22;2.90;88.80
40077;DHT22;25777;47.824;18.982;2024-01-16T14:32:48;2.90;87.50
40077;DHT22;25777;47.824;18.982;2024-01-16T14:35:14;2.90;89.50
40077;DHT22;25777;47.824;18.982;2024-01-16T14:37:43;2.80;90.50
40077;DHT22;25777;47.824;18.982;2024-01-16T14:40:09;2.90;90.50
40077;DHT22;25777;47.824;18.982;2024-01-16T14:42:41;2.80;90.80
40077;DHT22;25777;47.824;18.982;2024-01-16T14:45:08;2.90;90.80
40077;DHT22;25777;47.824;18.982;2024-01-16T14:47:39;2.80;91.10
40077;DHT22;25777;47.824;18.982;2024-01-16T14:50:07;2.80;91.00
40077;DHT22;25777;47.824;18.982;2024-01-16T14:52:33;2.80;91.10
40077;DHT22;25777;47.824;18.982;2024-01-16T14:55:01;2.70;90.90
40077;DHT22;25777;47.824;18.982;2024-01-16T14:57:27;2.70;91.50
40077;DHT22;25777;47.824;18.982;2024-01-16T14:59:56;2.80;91.40
40077;DHT22;25777;47.824;18.982;2024-01-16T15:02:22;2.70;91.30
40077;DHT22;25777;47.824;18.982;2024-01-16T15:04:48;2.70;91.40
40077;DHT22;25777;47.824;18.982;2024-01-16T15:07:15;2.70;91.50
40077;DHT22;25777;47.824;18.982;2024-01-16T15:09:41;2.70;91.60
40077;DHT22;25777;47.824;18.982;2024-01-16T15:12:07;2.60;91.60
40077;DHT22;25777;47.824;18.982;2024-01-16T15:14:33;2.60;91.70
40077;DHT22;25777;47.824;18.982;2024-01-16T15:17:02;2.50;91.60
40077;DHT22;25777;47.824;18.982;2024-01-16T15:19:29;2.50;91.50
40077;DHT22;25777;47.824;18.982;2024-01-16T15:21:55;2.40;91.40
40077;DHT22;25777;47.824;18.982;2024-01-16T15:24:21;2.40;91.70
40077;DHT22;25777;47.824;18.982;2024-01-16T15:26:56;2.30;91.60
40077;DHT22;25777;47.824;18.982;2024-01-16T15:29:25;2.30;91.60
40077;DHT22;25777;47.824;18.982;2024-01-16T15:31:55;2.30;91.50
40077;DHT22;25777;47.824;18.982;2024-01-16T15:34:22;2.20;91.70
40077;DHT22;25777;47.824;18.982;2024-01-16T15:36:48;2.20;91.70
40077;DHT22;25777;47.824;18.982;2024-01-16T15:39:14;2.10;91.80